Time;durP1;ratioP1;P1;durP2;ratioP2;P2;SDS_P1;SDS_P2;PMS_P1;PMS_P2;Temp;Humidity;BMP_temperature;BMP_pressure;BME280_temperature;BME280_humidity;BME280_pressure;Samples;Min_cycle;Max_cycle;Signal;HPM_P1;HPM_P2
2022/04/21 00:00:44;;;;;;;0.00;0.00;;;8.00;99.90;;;;;;5041563;28;20549;-60
2022/04/21 00:03:10;;;;;;;0.00;0.00;;;8.10;99.90;;;;;;5040784;28;20120;-60
2022/04/21 00:05:36;;;;;;;0.00;0.00;;;8.10;99.90;;;;;;5041801;28;20049;-60
2022/04/21 00:08:03;;;;;;;0.00;0.00;;;8.10;99.90;;;;;;5040277;28;20044;-60
2022/04/21 00:10:29;;;;;;;0.00;0.00;;;8.10;99.90;;;;;;5041189;28;20043;-59
2022/04/21 00:12:55;;;;;;;0.00;0.00;;;8.00;99.90;;;;;;5040730;28;20083;-60
2022/04/21 00:15:22;;;;;;;0.28;0.28;;;9.10;99.90;;;;;;5040766;28;20083;-59
2022/04/21 00:17:48;;;;;;;0.00;0.00;;;7.90;99.90;;;;;;5040628;28;20450;-59
2022/04/21 00:20:13;;;;;;;0.00;0.00;;;8.50;99.90;;;;;;5040723;28;20056;-60
2022/04/21 00:25:26;;;;;;;0.00;0.00;;;7.80;99.90;;;;;;5040830;28;20076;-61
2022/04/21 00:27:52;;;;;;;0.00;0.00;;;7.80;99.90;;;;;;5039242;28;20096;-59
2022/04/21 00:30:19;;;;;;;0.00;0.00;;;7.80;99.90;;;;;;5040566;28;20077;-60
2022/04/21 00:32:46;;;;;;;0.00;0.00;;;7.80;99.90;;;;;;5040719;28;20064;-59
2022/04/21 00:35:12;;;;;;;0.00;0.00;;;7.80;99.90;;;;;;5038852;28;20053;-59
2022/04/21 00:37:48;;;;;;;0.00;0.00;;;7.60;99.90;;;;;;5041383;28;20490;-61
2022/04/21 00:40:15;;;;;;;0.00;0.00;;;7.80;99.90;;;;;;5040728;28;20049;-60
2022/04/21 00:42:42;;;;;;;0.00;0.00;;;7.80;99.90;;;;;;5040398;28;20544;-59
2022/04/21 00:45:09;;;;;;;0.00;0.00;;;7.90;99.90;;;;;;5042210;28;20041;-59
2022/04/21 00:47:35;;;;;;;0.00;0.00;;;7.90;99.90;;;;;;5049690;28;20045;-59
2022/04/21 00:50:01;;;;;;;0.00;0.00;;;7.90;99.90;;;;;;5040914;28;20048;-60
2022/04/21 00:52:27;;;;;;;0.00;0.00;;;7.90;99.90;;;;;;5040012;28;20037;-59
2022/04/21 00:54:53;;;;;;;0.00;0.00;;;7.90;99.90;;;;;;5040605;28;20053;-60
2022/04/21 00:57:19;;;;;;;0.00;0.00;;;7.90;99.90;;;;;;5040180;28;20155;-60
2022/04/21 00:59:46;;;;;;;0.00;0.00;;;7.90;99.90;;;;;;5040782;28;20454;-59
2022/04/21 01:04:57;;;;;;;0.00;0.00;;;7.90;99.90;;;;;;5039477;28;20084;-59
2022/04/21 01:07:23;;;;;;;0.00;0.00;;;7.90;99.90;;;;;;5039543;28;20625;-59
2022/04/21 01:09:49;;;;;;;0.00;0.00;;;7.90;99.90;;;;;;5053704;22;20052;-59
2022/04/21 01:12:15;;;;;;;0.00;0.00;;;7.80;99.90;;;;;;5052511;28;20040;-60
2022/04/21 01:14:41;;;;;;;0.00;0.00;;;8.10;99.90;;;;;;5058646;28;20048;-60
2022/04/21 01:17:09;;;;;;;0.00;0.00;;;7.80;99.90;;;;;;5059890;28;20510;-58
2022/04/21 01:19:35;;;;;;;0.00;0.00;;;7.80;99.90;;;;;;5060374;28;20447;-59
2022/04/21 01:22:01;;;;;;;0.00;0.00;;;7.70;99.90;;;;;;5060813;28;20091;-59
2022/04/21 01:24:27;;;;;;;0.00;0.00;;;8.20;99.90;;;;;;5059233;28;20040;-59
2022/04/21 01:26:59;;;;;;;0.00;0.00;;;7.70;99.90;;;;;;5060908;28;20051;-59
2022/04/21 01:29:25;;;;;;;0.00;0.00;;;7.70;99.90;;;;;;5060109;28;20051;-59
2022/04/21 01:31:51;;;;;;;0.00;0.00;;;7.60;99.90;;;;;;5060262;28;20040;-59
2022/04/21 01:34:17;;;;;;;0.00;0.00;;;7.60;99.90;;;;;;5059258;28;20473;-59
2022/04/21 01:42:15;;;;;;;0.00;0.00;;;7.50;99.90;;;;;;5060377;28;20048;-60
2022/04/21 01:44:43;;;;;;;0.00;0.00;;;7.50;99.90;;;;;;5058355;28;20044;-59
2022/04/21 01:47:09;;;;;;;0.00;0.00;;;7.40;99.90;;;;;;5057102;28;20048;-59
2022/04/21 01:49:34;;;;;;;0.00;0.00;;;7.40;99.90;;;;;;5060009;28;20032;-59
2022/04/21 01:52:00;;;;;;;0.00;0.00;;;7.30;99.90;;;;;;5060298;28;20094;-59
2022/04/21 01:54:26;;;;;;;0.00;0.00;;;7.60;99.90;;;;;;5059394;28;20044;-59
2022/04/21 01:56:51;;;;;;;0.00;0.00;;;7.20;99.90;;;;;;5060238;28;20044;-59
2022/04/21 01:59:17;;;;;;;0.00;0.00;;;7.30;99.90;;;;;;5059911;28;20123;-60
2022/04/21 02:01:42;;;;;;;0.00;0.00;;;7.20;99.90;;;;;;5060184;28;20032;-59
2022/04/21 02:04:08;;;;;;;0.00;0.00;;;7.10;99.90;;;;;;5059220;28;20051;-59
2022/04/21 02:06:34;;;;;;;0.00;0.00;;;7.10;99.90;;;;;;5059806;28;20048;-59
2022/04/21 02:08:59;;;;;;;0.00;0.00;;;7.00;99.90;;;;;;5058783;28;20517;-59
2022/04/21 02:11:25;;;;;;;0.00;0.00;;;7.00;99.90;;;;;;5059010;28;20139;-59
2022/04/21 02:13:52;;;;;;;0.20;0.20;;;7.00;99.90;;;;;;5042186;28;20097;-59
2022/04/21 02:16:18;;;;;;;0.00;0.00;;;7.70;99.90;;;;;;5061246;28;20059;-59
2022/04/21 02:18:43;;;;;;;0.00;0.00;;;7.30;99.90;;;;;;5063188;28;20044;-59
2022/04/21 02:21:09;;;;;;;0.00;0.00;;;7.00;99.90;;;;;;5063550;28;20124;-59
2022/04/21 02:23:35;;;;;;;0.00;0.00;;;7.00;99.90;;;;;;5063698;28;20605;-60
2022/04/21 02:26:00;;;;;;;0.00;0.00;;;7.00;99.90;;;;;;5064122;28;20486;-59
2022/04/21 02:28:26;;;;;;;0.00;0.00;;;6.90;99.90;;;;;;5063222;28;20044;-59
2022/04/21 02:30:52;;;;;;;0.00;0.00;;;6.90;99.90;;;;;;5063068;28;20040;-58
2022/04/21 02:33:17;;;;;;;0.00;0.00;;;6.80;99.90;;;;;;5062398;28;20521;-61
2022/04/21 02:35:43;;;;;;;0.00;0.00;;;6.80;99.90;;;;;;5063385;28;20056;-60
2022/04/21 02:38:09;;;;;;;0.00;0.00;;;6.80;99.90;;;;;;5063378;28;20692;-59
2022/04/21 02:40:34;;;;;;;0.00;0.00;;;6.80;99.90;;;;;;5063128;28;20048;-59
2022/04/21 02:43:00;;;;;;;0.00;0.00;;;7.90;99.90;;;;;;5063382;28;20703;-59
2022/04/21 02:45:26;;;;;;;0.00;0.00;;;6.60;99.90;;;;;;5059868;28;20531;-59
2022/04/21 02:47:52;;;;;;;0.00;0.00;;;6.60;99.90;;;;;;5050685;28;20036;-60
2022/04/21 02:50:18;;;;;;;0.00;0.00;;;6.60;99.90;;;;;;5042761;28;20087;-59
2022/04/21 02:52:45;;;;;;;0.00;0.00;;;6.50;99.90;;;;;;5043420;28;20041;-59
2022/04/21 02:57:56;;;;;;;0.00;0.00;;;6.60;99.90;;;;;;5043215;28;20037;-59
2022/04/21 03:00:22;;;;;;;0.00;0.00;;;6.50;99.90;;;;;;5042817;28;20407;-59
2022/04/21 03:02:48;;;;;;;0.00;0.00;;;6.50;99.90;;;;;;5041922;28;20068;-59
2022/04/21 03:05:14;;;;;;;0.00;0.00;;;6.50;99.90;;;;;;5042813;28;20048;-60
2022/04/21 03:07:39;;;;;;;0.00;0.00;;;6.60;99.90;;;;;;5058370;28;20041;-59
2022/04/21 03:10:05;;;;;;;0.00;0.00;;;6.60;99.90;;;;;;5043254;28;20569;-59
2022/04/21 03:12:31;;;;;;;0.00;0.00;;;6.60;99.90;;;;;;5040288;28;20085;-59
2022/04/21 03:14:57;;;;;;;0.00;0.00;;;6.60;99.90;;;;;;5042445;28;20076;-58
2022/04/21 03:17:23;;;;;;;0.00;0.00;;;6.60;99.90;;;;;;5041755;28;20045;-59
2022/04/21 03:19:49;;;;;;;0.00;0.00;;;6.60;99.90;;;;;;5057473;28;20120;-61
2022/04/21 03:25:00;;;;;;;0.00;0.00;;;6.60;99.90;;;;;;5042651;28;20053;-60
2022/04/21 03:27:29;;;;;;;0.00;0.00;;;6.50;99.90;;;;;;5040698;28;20048;-59
2022/04/21 03:30:00;;;;;;;0.00;0.00;;;6.50;99.90;;;;;;5042507;28;20057;-60
2022/04/21 03:32:26;;;;;;;0.00;0.00;;;6.40;99.90;;;;;;5041347;28;20036;-59
2022/04/21 03:34:53;;;;;;;0.00;0.00;;;6.40;99.90;;;;;;5041907;28;20051;-59
2022/04/21 03:37:20;;;;;;;0.00;0.00;;;6.40;99.90;;;;;;5041817;28;20037;-60
2022/04/21 03:39:46;;;;;;;0.00;0.00;;;6.40;99.90;;;;;;5057756;28;20053;-60
2022/04/21 03:42:19;;;;;;;0.00;0.00;;;7.30;99.90;;;;;;5041626;28;20502;-59
2022/04/21 03:44:44;;;;;;;0.00;0.00;;;6.40;99.90;;;;;;5042475;28;20086;-59
2022/04/21 03:47:11;;;;;;;0.00;0.00;;;6.40;99.90;;;;;;5052704;28;20399;-60
2022/04/21 03:49:36;;;;;;;0.00;0.00;;;6.40;99.90;;;;;;5042070;28;20404;-60
2022/04/21 03:52:02;;;;;;;0.10;0.10;;;6.40;99.90;;;;;;5041845;28;20041;-60
2022/04/21 03:54:28;;;;;;;0.00;0.00;;;6.40;99.90;;;;;;5041646;28;20520;-59
2022/04/21 03:56:54;;;;;;;0.00;0.00;;;6.40;99.90;;;;;;5040916;28;20111;-59
2022/04/21 03:59:21;;;;;;;0.00;0.00;;;6.40;99.90;;;;;;5041077;28;20083;-59
2022/04/21 04:01:46;;;;;;;0.00;0.00;;;6.40;99.90;;;;;;5041223;28;20049;-59
2022/04/21 04:04:13;;;;;;;0.00;0.00;;;6.40;99.90;;;;;;5056982;28;20045;-59
2022/04/21 04:12:10;;;;;;;0.00;0.00;;;6.30;99.90;;;;;;5056473;28;20124;-59
2022/04/21 04:14:37;;;;;;;0.00;0.00;;;6.30;99.90;;;;;;5040455;28;20045;-59
2022/04/21 04:17:05;;;;;;;0.00;0.00;;;6.40;99.90;;;;;;5041037;28;20108;-59
2022/04/21 04:19:31;;;;;;;0.00;0.00;;;6.10;99.90;;;;;;5041162;28;20067;-58
2022/04/21 04:21:56;;;;;;;0.10;0.10;;;6.10;99.90;;;;;;5040930;28;20044;-59
2022/04/21 04:24:22;;;;;;;0.00;0.00;;;6.10;99.90;;;;;;5040830;28;20041;-59
2022/04/21 04:26:48;;;;;;;0.00;0.00;;;6.10;99.90;;;;;;5041409;28;20501;-61
2022/04/21 04:29:14;;;;;;;0.00;0.00;;;6.20;99.90;;;;;;5040415;28;20164;-60
2022/04/21 04:31:40;;;;;;;0.00;0.00;;;6.00;99.90;;;;;;5056311;28;20049;-60
2022/04/21 04:34:08;;;;;;;0.00;0.00;;;6.00;99.90;;;;;;5041338;28;20049;-59
2022/04/21 04:36:34;;;;;;;0.00;0.00;;;6.10;99.90;;;;;;5040833;28;20052;-59
2022/04/21 04:39:00;;;;;;;0.00;0.00;;;6.10;99.90;;;;;;5040356;28;20041;-59
2022/04/21 04:44:10;;;;;;;0.00;0.00;;;6.20;99.90;;;;;;5040854;28;20052;-60
2022/04/21 04:46:35;;;;;;;0.00;0.00;;;6.20;99.90;;;;;;5049217;28;20697;-59
2022/04/21 04:49:06;;;;;;;0.00;0.00;;;6.20;99.90;;;;;;5043482;28;20521;-59
2022/04/21 04:51:43;;;;;;;0.00;0.00;;;6.30;99.90;;;;;;5040407;28;20041;-59
2022/04/21 04:54:15;;;;;;;0.00;0.00;;;6.30;99.90;;;;;;5056363;28;20063;-60
2022/04/21 04:56:43;;;;;;;0.00;0.00;;;6.30;99.90;;;;;;5040943;28;20072;-59
2022/04/21 04:59:09;;;;;;;0.00;0.00;;;6.20;99.90;;;;;;5040711;28;20049;-59
2022/04/21 05:01:43;;;;;;;0.00;0.00;;;6.20;99.90;;;;;;5040000;28;20080;-59
2022/04/21 05:04:11;;;;;;;0.00;0.00;;;6.20;99.90;;;;;;5041240;28;20124;-61
2022/04/21 05:06:49;;;;;;;0.00;0.00;;;6.30;99.90;;;;;;5040300;28;20055;-60
2022/04/21 05:09:16;;;;;;;0.00;0.00;;;6.30;99.90;;;;;;5040646;28;20049;-60
2022/04/21 05:11:46;;;;;;;0.00;0.00;;;6.40;99.90;;;;;;5039004;28;20055;-61
2022/04/21 05:14:13;;;;;;;0.00;0.00;;;6.40;99.90;;;;;;5039989;28;20045;-61
2022/04/21 05:16:39;;;;;;;0.00;0.00;;;6.40;99.90;;;;;;5039552;28;20070;-61
2022/04/21 05:19:09;;;;;;;0.00;0.00;;;6.40;99.90;;;;;;5040985;28;20107;-60
2022/04/21 05:21:37;;;;;;;0.00;0.00;;;6.50;99.90;;;;;;5039921;28;20051;-60
2022/04/21 05:24:04;;;;;;;0.00;0.00;;;6.70;99.90;;;;;;5039115;28;20095;-60
2022/04/21 05:26:32;;;;;;;0.10;0.10;;;6.90;99.90;;;;;;5039776;28;20045;-60
2022/04/21 05:28:59;;;;;;;0.00;0.00;;;7.00;99.90;;;;;;5040876;28;20051;-60
2022/04/21 05:31:26;;;;;;;0.00;0.00;;;7.20;99.90;;;;;;5038350;28;20041;-60
2022/04/21 05:33:53;;;;;;;0.00;0.00;;;7.30;99.90;;;;;;5040607;28;20048;-60
2022/04/21 05:36:19;;;;;;;0.00;0.00;;;7.50;99.90;;;;;;5039772;28;20747;-60
2022/04/21 05:38:46;;;;;;;0.10;0.10;;;8.00;99.90;;;;;;5039455;28;20128;-60
2022/04/21 05:41:13;;;;;;;0.00;0.00;;;8.50;99.90;;;;;;5038801;28;20045;-60
2022/04/21 05:43:44;;;;;;;0.00;0.00;;;8.80;99.90;;;;;;5040565;28;20085;-60
2022/04/21 05:46:12;;;;;;;0.00;0.00;;;9.20;99.90;;;;;;5045548;28;20080;-61
2022/04/21 05:48:38;;;;;;;0.00;0.00;;;9.60;99.90;;;;;;5045262;28;20029;-60
2022/04/21 05:51:05;;;;;;;0.00;0.00;;;9.90;99.90;;;;;;5042044;28;20053;-60
2022/04/21 05:53:36;;;;;;;0.00;0.00;;;10.20;99.90;;;;;;5042473;28;20061;-60
2022/04/21 05:56:04;;;;;;;0.57;0.10;;;10.40;99.90;;;;;;5043587;28;20705;-60
2022/04/21 05:58:30;;;;;;;0.00;0.00;;;10.50;99.90;;;;;;5043690;28;20044;-60
2022/04/21 06:00:57;;;;;;;0.00;0.00;;;10.80;99.90;;;;;;5044250;28;20083;-60
2022/04/21 06:03:22;;;;;;;0.00;0.00;;;11.10;99.90;;;;;;5042323;28;20084;-63
2022/04/21 06:05:48;;;;;;;0.00;0.00;;;11.30;99.90;;;;;;5044097;28;20081;-62
2022/04/21 06:08:14;;;;;;;0.00;0.00;;;11.50;99.90;;;;;;5043461;28;20041;-60
2022/04/21 06:10:40;;;;;;;0.00;0.00;;;11.70;99.90;;;;;;5044078;28;20106;-60
2022/04/21 06:13:05;;;;;;;0.00;0.00;;;12.10;99.90;;;;;;5043454;28;20084;-60
2022/04/21 06:15:32;;;;;;;0.00;0.00;;;12.10;99.90;;;;;;5043118;28;20087;-60
2022/04/21 06:18:01;;;;;;;0.00;0.00;;;12.40;99.90;;;;;;5043140;28;20041;-61
2022/04/21 06:20:27;;;;;;;0.00;0.00;;;12.50;99.90;;;;;;5057775;28;20138;-59
2022/04/21 06:22:53;;;;;;;0.00;0.00;;;12.70;99.90;;;;;;5044050;28;20041;-58
2022/04/21 06:25:19;;;;;;;0.00;0.00;;;12.90;99.90;;;;;;5043253;28;20045;-61
2022/04/21 06:27:45;;;;;;;0.70;0.10;;;12.70;99.90;;;;;;5043972;28;20697;-59
2022/04/21 06:30:11;;;;;;;0.00;0.00;;;13.20;99.90;;;;;;5042991;28;20099;-62
2022/04/21 06:32:36;;;;;;;0.00;0.00;;;13.00;99.90;;;;;;5042777;28;20124;-60
2022/04/21 06:35:03;;;;;;;0.00;0.00;;;13.10;99.90;;;;;;5043627;28;20060;-60
2022/04/21 06:37:29;;;;;;;0.00;0.00;;;13.30;99.90;;;;;;5042439;28;20115;-60
2022/04/21 06:39:54;;;;;;;0.00;0.00;;;13.50;99.90;;;;;;5043312;28;20132;-60
2022/04/21 06:42:20;;;;;;;0.00;0.00;;;13.50;99.90;;;;;;5043268;28;20059;-60
2022/04/21 06:50:14;;;;;;;0.00;0.00;;;13.80;99.90;;;;;;5062715;28;20040;-59
2022/04/21 06:52:40;;;;;;;0.05;0.03;;;13.70;99.90;;;;;;5061634;28;20525;-60
2022/04/21 06:55:06;;;;;;;0.00;0.00;;;14.10;99.90;;;;;;5063445;28;20487;-60
2022/04/21 06:57:31;;;;;;;0.00;0.00;;;14.40;99.90;;;;;;5062581;28;20040;-58
2022/04/21 06:59:58;;;;;;;0.00;0.00;;;14.30;99.90;;;;;;5062449;28;20067;-59
2022/04/21 07:02:27;;;;;;;0.00;0.00;;;14.20;99.90;;;;;;5061782;28;20040;-59
2022/04/21 07:04:53;;;;;;;0.00;0.00;;;14.10;99.90;;;;;;5063245;28;20064;-59
2022/04/21 07:07:19;;;;;;;0.00;0.00;;;14.10;99.90;;;;;;5062319;28;20068;-60
2022/04/21 07:09:44;;;;;;;0.00;0.00;;;14.40;99.90;;;;;;5060714;28;20446;-60
2022/04/21 07:12:10;;;;;;;0.00;0.00;;;14.60;99.90;;;;;;5062572;28;20056;-60
2022/04/21 07:14:36;;;;;;;0.00;0.00;;;14.40;99.90;;;;;;5062621;28;20052;-58
2022/04/21 07:17:02;;;;;;;0.00;0.00;;;14.50;99.90;;;;;;5060572;28;20055;-58
2022/04/21 07:19:28;;;;;;;0.10;0.10;;;14.60;99.90;;;;;;5062226;28;20247;-59
2022/04/21 07:21:53;;;;;;;0.08;0.08;;;14.80;99.90;;;;;;5061464;28;20086;-59
2022/04/21 07:24:19;;;;;;;0.00;0.00;;;14.90;99.90;;;;;;5062535;28;20044;-60
2022/04/21 07:26:45;;;;;;;0.00;0.00;;;14.90;99.90;;;;;;5061912;28;20052;-60
2022/04/21 07:29:10;;;;;;;0.00;0.00;;;14.90;99.90;;;;;;5062152;28;20041;-61
2022/04/21 07:31:37;;;;;;;0.00;0.00;;;15.10;99.90;;;;;;5061596;28;20123;-60
2022/04/21 07:34:03;;;;;;;0.00;0.00;;;15.10;99.90;;;;;;5061852;28;20135;-66
2022/04/21 07:36:29;;;;;;;0.00;0.00;;;15.10;99.90;;;;;;5061970;28;20136;-60
2022/04/21 07:38:54;;;;;;;0.00;0.00;;;15.30;99.90;;;;;;5062060;28;20032;-60
2022/04/21 07:41:20;;;;;;;0.00;0.00;;;15.20;99.90;;;;;;5061943;28;20036;-61
2022/04/21 07:43:46;;;;;;;0.00;0.00;;;15.10;99.90;;;;;;5061564;28;20090;-61
2022/04/21 07:46:12;;;;;;;0.00;0.00;;;15.10;99.90;;;;;;5054547;28;20087;-60
2022/04/21 07:51:22;;;;;;;0.00;0.00;;;15.70;99.90;;;;;;5040576;28;20045;-60
2022/04/21 07:53:48;;;;;;;0.00;0.00;;;15.60;99.90;;;;;;5041901;28;20052;-61
2022/04/21 07:56:13;;;;;;;0.00;0.00;;;15.90;99.90;;;;;;5041279;28;20132;-63
2022/04/21 07:58:40;;;;;;;0.00;0.00;;;15.80;99.90;;;;;;5041392;28;20041;-61
2022/04/21 08:01:06;;;;;;;0.00;0.00;;;15.90;99.90;;;;;;5056885;28;20384;-61
2022/04/21 08:03:37;;;;;;;0.00;0.00;;;15.90;99.90;;;;;;5056590;28;20119;-60
2022/04/21 08:06:06;;;;;;;0.00;0.00;;;15.90;99.90;;;;;;5041965;28;20427;-61
2022/04/21 08:08:32;;;;;;;0.00;0.00;;;15.70;99.90;;;;;;5040374;28;20055;-61
2022/04/21 08:10:58;;;;;;;0.00;0.00;;;15.70;99.90;;;;;;5041534;28;20060;-60
2022/04/21 08:13:25;;;;;;;0.00;0.00;;;15.60;99.90;;;;;;5040319;28;20041;-60
2022/04/21 08:15:53;;;;;;;0.00;0.00;;;15.50;99.90;;;;;;5039992;28;20045;-63
2022/04/21 08:18:18;;;;;;;0.00;0.00;;;15.40;99.90;;;;;;5040790;28;20092;-60
2022/04/21 08:20:46;;;;;;;0.00;0.00;;;15.40;99.90;;;;;;5041185;28;20083;-61
2022/04/21 08:23:11;;;;;;;0.00;0.00;;;15.40;99.90;;;;;;5041276;28;20086;-61
2022/04/21 08:33:50;;;;;;;0.00;0.00;;;15.70;99.90;;;;;;5041066;28;20083;-60
2022/04/21 08:36:15;;;;;;;0.00;0.00;;;15.90;99.90;;;;;;5039889;28;20199;-62
2022/04/21 08:38:41;;;;;;;0.00;0.00;;;16.20;99.90;;;;;;5041204;28;20060;-62
2022/04/21 08:41:09;;;;;;;0.00;0.00;;;16.50;99.90;;;;;;5040220;28;20045;-61
2022/04/21 08:43:35;;;;;;;0.00;0.00;;;16.50;99.90;;;;;;5040473;28;20123;-60
2022/04/21 08:46:03;;;;;;;0.00;0.00;;;16.50;99.90;;;;;;5052664;28;20132;-60
2022/04/21 08:48:29;;;;;;;0.00;0.00;;;16.20;99.90;;;;;;5046691;28;20170;-60
2022/04/21 08:50:55;;;;;;;0.00;0.00;;;16.40;99.90;;;;;;5049497;28;20118;-60
2022/04/21 08:53:24;;;;;;;0.00;0.00;;;16.30;99.90;;;;;;5079374;28;20130;-61
2022/04/21 08:55:51;;;;;;;0.00;0.00;;;16.10;99.90;;;;;;5081037;28;20047;-60
2022/04/21 08:58:16;;;;;;;0.00;0.00;;;16.20;99.90;;;;;;5078976;28;20044;-61
2022/04/21 09:00:43;;;;;;;0.00;0.00;;;16.40;99.90;;;;;;5079725;28;20050;-62
2022/04/21 09:03:11;;;;;;;0.00;0.00;;;16.30;99.90;;;;;;5081229;28;20052;-60
2022/04/21 09:05:36;;;;;;;0.00;0.00;;;16.20;99.90;;;;;;5080561;28;20036;-61
2022/04/21 09:08:02;;;;;;;0.00;0.00;;;16.30;99.90;;;;;;5080418;28;20372;-60
2022/04/21 09:10:29;;;;;;;0.00;0.00;;;16.40;99.90;;;;;;5078007;28;20141;-60
2022/04/21 09:12:57;;;;;;;0.00;0.00;;;16.50;99.90;;;;;;5080609;28;20036;-60
2022/04/21 09:15:35;;;;;;;0.00;0.00;;;16.70;99.90;;;;;;5079910;28;20059;-60
2022/04/21 09:18:07;;;;;;;0.00;0.00;;;16.90;99.90;;;;;;5079332;28;20039;-60
2022/04/21 09:20:36;;;;;;;0.00;0.00;;;16.90;99.90;;;;;;5080115;28;20379;-60
2022/04/21 09:23:11;;;;;;;0.00;0.00;;;16.80;99.90;;;;;;5080733;28;20032;-60
2022/04/21 09:25:50;;;;;;;0.00;0.00;;;17.10;99.90;;;;;;5070685;28;20790;-60
2022/04/21 09:28:25;;;;;;;0.00;0.00;;;17.30;99.90;;;;;;5067134;28;20129;-61
2022/04/21 09:30:52;;;;;;;0.00;0.00;;;17.40;99.90;;;;;;5068054;28;20394;-60
2022/04/21 09:33:40;;;;;;;0.10;0.10;;;17.50;99.90;;;;;;5071046;28;20053;-61
2022/04/21 09:36:07;;;;;;;0.00;0.00;;;17.70;99.90;;;;;;5059924;28;20128;-61
2022/04/21 09:38:34;;;;;;;0.00;0.00;;;17.80;99.90;;;;;;5059866;28;20094;-61
2022/04/21 09:41:13;;;;;;;0.00;0.00;;;17.80;99.90;;;;;;5060633;28;20128;-61
2022/04/21 09:43:41;;;;;;;0.00;0.00;;;17.90;99.90;;;;;;5058257;28;20127;-61
2022/04/21 09:46:16;;;;;;;0.00;0.00;;;17.80;99.90;;;;;;5061411;28;20052;-60
2022/04/21 09:48:43;;;;;;;;;;;17.80;99.90;;;;;;5061387;28;20124;-61
2022/04/21 09:51:15;;;;;;;0.00;0.00;;;17.80;99.90;;;;;;5060083;28;20330;-61
2022/04/21 09:53:50;;;;;;;0.00;0.00;;;17.90;99.90;;;;;;5060401;28;20048;-60
2022/04/21 09:56:16;;;;;;;0.00;0.00;;;18.00;99.90;;;;;;5059256;28;20049;-62
2022/04/21 09:58:43;;;;;;;0.00;0.00;;;18.20;99.90;;;;;;5058582;28;20055;-60
2022/04/21 10:01:09;;;;;;;0.00;0.00;;;18.30;99.90;;;;;;5059533;28;20122;-60
2022/04/21 10:03:35;;;;;;;0.10;0.10;;;18.40;99.90;;;;;;5059875;28;20052;-60
2022/04/21 10:06:02;;;;;;;0.00;0.00;;;18.40;99.90;;;;;;5059268;28;20033;-60
2022/04/21 10:08:29;;;;;;;0.00;0.00;;;18.40;99.90;;;;;;5059707;28;20052;-60
2022/04/21 10:10:56;;;;;;;0.00;0.00;;;18.40;99.90;;;;;;5059395;28;20760;-60
2022/04/21 10:13:22;;;;;;;0.00;0.00;;;18.60;99.90;;;;;;5057123;28;20102;-60
2022/04/21 10:15:50;;;;;;;0.00;0.00;;;18.60;99.90;;;;;;5058434;28;20055;-60
2022/04/21 10:18:16;;;;;;;0.00;0.00;;;18.70;99.90;;;;;;5057146;28;20136;-61
2022/04/21 10:20:44;;;;;;;0.00;0.00;;;18.70;99.90;;;;;;5066233;28;20615;-61
2022/04/21 10:23:21;;;;;;;0.00;0.00;;;18.70;99.90;;;;;;5077891;28;20052;-62
2022/04/21 10:25:59;;;;;;;0.00;0.00;;;18.70;99.90;;;;;;5079565;28;20097;-60
2022/04/21 10:28:38;;;;;;;0.00;0.00;;;18.80;99.90;;;;;;5068694;28;20048;-60
2022/04/21 10:31:30;;;;;;;0.00;0.00;;;18.70;99.90;;;;;;5057870;28;20059;-60
2022/04/21 10:34:01;;;;;;;0.00;0.00;;;18.70;99.90;;;;;;5059259;28;20398;-60
2022/04/21 10:36:41;;;;;;;0.00;0.00;;;19.00;99.90;;;;;;5059572;28;20585;-61
2022/04/21 10:39:26;;;;;;;0.00;0.00;;;19.00;99.90;;;;;;5062755;28;20049;-61
2022/04/21 10:42:11;;;;;;;0.00;0.00;;;18.60;99.90;;;;;;5063090;28;20144;-61
2022/04/21 10:44:55;;;;;;;0.00;0.00;;;18.50;99.90;;;;;;5068477;28;20108;-60
2022/04/21 10:47:33;;;;;;;0.00;0.00;;;18.30;99.90;;;;;;5053142;28;20261;-61
2022/04/21 10:50:00;;;;;;;0.00;0.00;;;18.30;99.90;;;;;;5043126;28;20858;-60
2022/04/21 10:57:47;;;;;;;0.00;0.00;;;19.10;99.90;;;;;;5043223;28;20498;-61
2022/04/21 11:00:27;;;;;;;0.00;0.00;;;19.20;99.90;;;;;;5042907;28;20052;-63
2022/04/21 11:03:04;;;;;;;0.00;0.00;;;19.20;99.90;;;;;;5042448;28;20384;-60
2022/04/21 11:05:38;;;;;;;0.00;0.00;;;19.10;99.90;;;;;;5042997;28;20120;-61
2022/04/21 11:08:09;;;;;;;0.55;0.13;;;19.40;99.90;;;;;;5042512;28;20405;-61
2022/04/21 11:10:38;;;;;;;0.00;0.00;;;19.20;99.90;;;;;;5042739;28;20068;-61
2022/04/21 11:13:05;;;;;;;0.00;0.00;;;19.20;99.90;;;;;;5042867;28;20056;-61
2022/04/21 11:15:47;;;;;;;0.00;0.00;;;18.90;99.90;;;;;;5047333;28;20120;-61
2022/04/21 11:18:14;;;;;;;0.00;0.00;;;18.60;99.90;;;;;;5068113;28;20533;-60
2022/04/21 11:20:44;;;;;;;0.10;0.10;;;18.40;99.90;;;;;;5066684;28;20071;-62
2022/04/21 11:23:24;;;;;;;0.00;0.00;;;18.30;99.90;;;;;;5063108;28;20128;-61
2022/04/21 11:25:51;;;;;;;0.00;0.00;;;18.00;99.90;;;;;;5071455;28;20047;-61
2022/04/21 11:28:26;;;;;;;0.00;0.00;;;17.90;99.90;;;;;;5075640;28;20693;-61
2022/04/21 11:31:01;;;;;;;0.00;0.00;;;18.10;99.90;;;;;;5080979;28;20040;-60
2022/04/21 11:33:27;;;;;;;0.00;0.00;;;18.40;99.90;;;;;;5067982;28;20036;-59
2022/04/21 11:36:09;;;;;;;0.00;0.00;;;18.40;99.90;;;;;;5061578;28;20085;-64
2022/04/21 11:38:45;;;;;;;0.00;0.00;;;18.60;99.90;;;;;;5061710;28;20574;-64
2022/04/21 11:41:13;;;;;;;0.00;0.00;;;18.80;99.90;;;;;;5061158;28;20036;-64
2022/04/21 11:43:49;;;;;;;0.00;0.00;;;19.00;99.90;;;;;;5062285;28;20049;-64
2022/04/21 11:46:19;;;;;;;0.00;0.00;;;18.40;99.90;;;;;;5054441;28;20110;-64
2022/04/21 11:48:44;;;;;;;0.00;0.00;;;18.00;99.90;;;;;;5044528;28;20047;-65
2022/04/21 11:51:12;;;;;;;0.00;0.00;;;18.10;99.90;;;;;;5057136;28;20053;-64
2022/04/21 11:53:43;;;;;;;0.00;0.00;;;18.10;99.90;;;;;;5040626;28;20048;-64
2022/04/21 11:56:10;;;;;;;0.00;0.00;;;17.90;99.90;;;;;;5041716;28;20120;-64
2022/04/21 11:58:38;;;;;;;0.00;0.00;;;18.00;99.90;;;;;;5041642;28;20084;-64
2022/04/21 12:06:57;;;;;;;0.00;0.00;;;18.40;99.90;;;;;;5040910;28;20543;-64
2022/04/21 12:09:28;;;;;;;0.00;0.00;;;18.10;99.90;;;;;;5040871;28;20064;-64
2022/04/21 12:11:58;;;;;;;0.00;0.00;;;18.10;99.90;;;;;;5041838;28;20045;-64
2022/04/21 12:14:25;;;;;;;0.00;0.00;;;17.90;99.90;;;;;;5055460;28;20049;-64
2022/04/21 12:16:55;;;;;;;0.00;0.00;;;17.70;99.90;;;;;;5039250;28;20090;-64
2022/04/21 12:19:40;;;;;;;0.00;0.00;;;18.10;99.90;;;;;;5040841;28;20043;-64
2022/04/21 12:22:10;;;;;;;0.00;0.00;;;18.40;99.90;;;;;;5041464;28;20041;-65
2022/04/21 12:24:46;;;;;;;0.00;0.00;;;18.70;99.90;;;;;;5041445;28;20050;-64
2022/04/21 12:27:17;;;;;;;0.00;0.00;;;18.60;99.90;;;;;;5040169;28;20080;-64
2022/04/21 12:29:51;;;;;;;0.00;0.00;;;18.80;99.90;;;;;;5041048;28;20457;-64
2022/04/21 12:32:25;;;;;;;0.00;0.00;;;18.80;99.90;;;;;;5039601;28;20041;-64
2022/04/21 12:34:54;;;;;;;;;;;18.90;99.90;;;;;;5041825;28;20048;-64
2022/04/21 12:37:37;;;;;;;0.00;0.00;;;18.90;99.90;;;;;;5039470;28;19921;-64
2022/04/21 12:40:09;;;;;;;0.00;0.00;;;19.10;99.90;;;;;;5039344;28;20726;-61
2022/04/21 12:42:35;;;;;;;0.00;0.00;;;18.90;99.90;;;;;;5041228;28;20494;-62
2022/04/21 12:45:01;;;;;;;0.00;0.00;;;19.10;99.90;;;;;;5054039;28;20047;-63
2022/04/21 12:47:27;;;;;;;0.00;0.00;;;19.70;99.90;;;;;;5069099;28;20068;-63
2022/04/21 12:50:12;;;;;;;0.00;0.00;;;19.10;99.90;;;;;;5071528;28;20459;-63
2022/04/21 12:52:46;;;;;;;0.00;0.00;;;18.90;99.90;;;;;;5070669;28;20032;-63
2022/04/21 12:55:18;;;;;;;0.00;0.00;;;18.80;99.90;;;;;;5071707;28;20048;-64
2022/04/21 12:57:57;;;;;;;0.00;0.00;;;18.70;99.90;;;;;;5070398;28;20131;-63
2022/04/21 13:00:23;;;;;;;0.00;0.00;;;18.80;99.90;;;;;;5066563;28;20494;-62
2022/04/21 13:02:48;;;;;;;0.00;0.00;;;18.90;99.90;;;;;;5069852;28;20093;-63
2022/04/21 13:05:14;;;;;;;0.00;0.00;;;18.90;99.90;;;;;;5070056;28;20036;-63
2022/04/21 13:07:39;;;;;;;0.00;0.00;;;19.00;99.90;;;;;;5069056;28;20046;-62
2022/04/21 13:10:05;;;;;;;0.00;0.00;;;19.00;99.90;;;;;;5044969;28;20051;-63
2022/04/21 13:12:33;;;;;;;0.00;0.00;;;19.10;99.90;;;;;;5057219;28;20044;-62
2022/04/21 13:14:58;;;;;;;0.00;0.00;;;19.00;99.90;;;;;;5055737;28;20118;-63
2022/04/21 13:17:24;;;;;;;0.00;0.00;;;19.10;99.90;;;;;;5056076;28;20043;-63
2022/04/21 13:19:50;;;;;;;0.00;0.00;;;19.30;99.90;;;;;;5059111;28;20402;-63
2022/04/21 13:22:15;;;;;;;0.00;0.00;;;19.20;99.90;;;;;;5054307;28;20562;-63
2022/04/21 13:24:41;;;;;;;0.00;0.00;;;19.10;99.90;;;;;;5047442;28;20037;-63
2022/04/21 13:27:07;;;;;;;0.00;0.00;;;19.30;99.90;;;;;;5047648;28;20475;-61
2022/04/21 13:29:33;;;;;;;0.00;0.00;;;19.30;99.90;;;;;;5047746;28;20079;-62
2022/04/21 13:34:44;;;;;;;0.85;0.28;;;19.30;99.90;;;;;;5051468;28;20068;-63
2022/04/21 13:37:10;;;;;;;0.00;0.00;;;19.40;99.90;;;;;;5054387;28;20087;-63
2022/04/21 13:39:36;;;;;;;0.00;0.00;;;19.30;99.90;;;;;;5051200;28;20481;-63
2022/04/21 13:42:05;;;;;;;0.00;0.00;;;19.20;99.90;;;;;;5054891;28;20055;-63
2022/04/21 13:44:31;;;;;;;0.00;0.00;;;19.30;99.90;;;;;;5051449;28;20490;-63
2022/04/21 13:46:57;;;;;;;0.00;0.00;;;19.30;99.90;;;;;;5046143;28;20125;-63
2022/04/21 13:49:23;;;;;;;0.00;0.00;;;19.20;99.90;;;;;;5046067;28;20049;-63
2022/04/21 13:51:49;;;;;;;0.00;0.00;;;19.20;99.90;;;;;;5047113;28;20040;-63